Terminal Aerodrome Forecast
Issued by NWS

Home | Current Version | Previous Version | Text Only | Print | Product List | Glossary Off
Versions: 1 2 3 4 5 6 7 8 9 10 11 12 13 14 15 16 17

000
FTUS43 KMPX 251946 AAA
TAFRWF
TAF AMD
KRWF 251946Z 2520/2618 27009KT P6SM VCTS SCT090CB SCT250
      TEMPO 2520/2523 3SM TSRA BR BKN050CB
     FM252300 26011G19KT P6SM SCT090
     FM260400 25006KT P6SM FEW110=

USA.gov is the U.S. government's official web portal to all federal, state and local government web resources and services.